Time;durP1;ratioP1;P1;durP2;ratioP2;P2;SDS_P1;SDS_P2;PMS_P1;PMS_P2;Temp;Humidity;BMP_temperature;BMP_pressure;BME280_temperature;BME280_humidity;BME280_pressure;Samples;Min_cycle;Max_cycle;Signal;HPM_P1;HPM_P2
2022/09/13 00:00:50;;;;;;;4.00;3.60;;;22.00;64.90;;;;;;10127128;29;20032;-49
2022/09/13 00:05:51;;;;;;;4.57;3.85;;;22.00;64.90;;;;;;10126636;29;20742;-50
2022/09/13 00:10:51;;;;;;;4.05;3.47;;;21.90;64.90;;;;;;10126634;29;20096;-48
2022/09/13 00:15:52;;;;;;;4.25;3.10;;;21.90;65.00;;;;;;10126041;29;20192;-48
2022/09/13 00:21:04;;;;;;;4.90;3.47;;;21.90;65.00;;;;;;10126735;29;20439;-47
2022/09/13 00:26:13;;;;;;;4.40;3.35;;;21.90;65.00;;;;;;10126093;29;20037;-50
2022/09/13 00:31:13;;;;;;;4.68;3.40;;;21.90;65.00;;;;;;10126049;29;20037;-48
2022/09/13 00:36:14;;;;;;;4.00;3.22;;;21.90;65.00;;;;;;10125909;29;20127;-48
2022/09/13 00:41:18;;;;;;;4.55;3.85;;;21.90;65.00;;;;;;10125753;29;20024;-51
2022/09/13 00:46:27;;;;;;;3.78;3.38;;;21.90;65.00;;;;;;10109099;29;20104;-47
2022/09/13 00:51:28;;;;;;;4.95;4.10;;;21.90;65.00;;;;;;10115948;29;20380;-48
2022/09/13 00:56:36;;;;;;;3.85;3.33;;;21.90;65.00;;;;;;10116697;29;20036;-49
2022/09/13 01:01:46;;;;;;;4.68;4.18;;;21.90;65.10;;;;;;10116846;29;20436;-50
2022/09/13 01:06:48;;;;;;;3.92;3.50;;;21.90;65.00;;;;;;10116777;29;20043;-47
2022/09/13 01:12:03;;;;;;;4.38;3.53;;;21.90;65.00;;;;;;10132895;29;20036;-48
2022/09/13 01:17:04;;;;;;;6.43;3.60;;;21.90;65.10;;;;;;10136282;29;20043;-48
2022/09/13 01:22:30;;;;;;;3.80;3.40;;;21.90;65.00;;;;;;10115536;29;20040;-51
2022/09/13 01:28:12;;;;;;;4.88;3.60;;;21.90;65.20;;;;;;10116075;29;20115;-50
2022/09/13 01:33:32;;;;;;;3.75;3.45;;;21.90;65.10;;;;;;10107037;29;20032;-48
2022/09/13 01:39:06;;;;;;;5.05;3.63;;;21.90;65.20;;;;;;10131848;29;20127;-51
2022/09/13 01:44:34;;;;;;;3.92;3.50;;;21.90;65.20;;;;;;10132007;29;20041;-49
2022/09/13 01:50:01;;;;;;;4.18;3.45;;;21.90;65.20;;;;;;10120575;29;20044;-52
2022/09/13 01:55:22;;;;;;;4.05;3.08;;;21.90;65.20;;;;;;10128805;29;20132;-49
2022/09/13 02:00:22;;;;;;;5.10;3.58;;;21.90;65.10;;;;;;10111917;29;20453;-51
2022/09/13 02:05:43;;;;;;;3.55;2.88;;;21.90;65.20;;;;;;10131080;29;20107;-51
2022/09/13 02:10:54;;;;;;;4.07;3.47;;;21.90;65.20;;;;;;10130928;29;20140;-51
2022/09/13 02:16:06;;;;;;;4.75;3.45;;;21.80;65.10;;;;;;10130994;29;20088;-51
2022/09/13 02:21:17;;;;;;;3.92;3.53;;;21.90;65.20;;;;;;10098759;29;20064;-51
2022/09/13 02:26:21;;;;;;;4.18;3.78;;;21.90;65.20;;;;;;10114373;29;20029;-49
2022/09/13 02:31:33;;;;;;;4.25;3.63;;;21.80;65.10;;;;;;10128390;29;20576;-49
2022/09/13 02:36:39;;;;;;;3.90;3.42;;;21.80;65.20;;;;;;10130006;29;20044;-49
2022/09/13 02:41:48;;;;;;;4.18;3.45;;;21.80;65.20;;;;;;10130081;29;20021;-50
2022/09/13 02:47:08;;;;;;;4.18;3.17;;;21.80;65.20;;;;;;10128415;29;20032;-50
2022/09/13 02:52:31;;;;;;;5.38;3.83;;;21.80;65.10;;;;;;10130006;29;20042;-51
2022/09/13 02:58:18;;;;;;;3.53;2.90;;;21.90;65.20;;;;;;10117490;29;20041;-52
2022/09/13 03:03:19;;;;;;;4.20;3.67;;;21.90;65.20;;;;;;10128754;29;20052;-50
2022/09/13 03:08:22;;;;;;;4.60;3.80;;;21.80;65.10;;;;;;10129038;29;20132;-47
2022/09/13 03:14:07;;;;;;;4.35;3.80;;;21.80;65.10;;;;;;10112387;29;20406;-51
2022/09/13 03:19:23;;;;;;;4.20;3.40;;;21.80;65.20;;;;;;10128522;29;20068;-51
2022/09/13 03:25:15;;;;;;;4.63;4.05;;;21.80;65.20;;;;;;10112149;29;20096;-49
2022/09/13 03:30:17;;;;;;;5.78;3.80;;;21.80;65.20;;;;;;10111041;29;20433;-51
2022/09/13 03:36:06;;;;;;;4.93;3.80;;;21.80;65.10;;;;;;10111195;29;20041;-51
2022/09/13 03:41:25;;;;;;;4.80;3.85;;;21.80;65.10;;;;;;9959003;29;20243;-50
2022/09/13 03:46:37;;;;;;;4.75;4.25;;;21.80;65.20;;;;;;10094814;29;20100;-51
2022/09/13 03:51:39;;;;;;;5.20;3.50;;;21.80;65.20;;;;;;10112013;29;20044;-51
2022/09/13 03:56:40;;;;;;;5.85;4.03;;;21.80;65.20;;;;;;10109934;29;20040;-49
2022/09/13 04:01:42;;;;;;;4.30;3.72;;;21.80;65.20;;;;;;10110013;29;20417;-50
2022/09/13 04:06:42;;;;;;;4.78;4.28;;;21.80;65.20;;;;;;10126400;29;20058;-52
2022/09/13 04:11:43;;;;;;;3.72;3.30;;;21.80;65.30;;;;;;10126687;29;20048;-50
2022/09/13 04:16:44;;;;;;;4.30;3.90;;;21.80;65.20;;;;;;10125611;29;20116;-48
2022/09/13 04:21:48;;;;;;;4.95;3.90;;;21.80;65.30;;;;;;10125006;29;20033;-50
2022/09/13 04:26:50;;;;;;;4.57;3.83;;;21.80;65.30;;;;;;10124698;29;20052;-51
2022/09/13 04:31:53;;;;;;;6.00;3.47;;;21.80;65.20;;;;;;10122725;29;20040;-52
2022/09/13 04:36:53;;;;;;;6.13;3.38;;;21.80;65.90;;;;;;10130393;29;20060;-54
2022/09/13 04:41:54;;;;;;;3.70;3.33;;;21.80;65.90;;;;;;10126117;29;20039;-54
2022/09/13 04:46:55;;;;;;;4.20;3.55;;;21.80;66.00;;;;;;10124741;29;20823;-55
2022/09/13 04:51:58;;;;;;;4.07;3.17;;;21.80;66.00;;;;;;10124547;29;20045;-54
2022/09/13 04:56:59;;;;;;;5.25;3.65;;;21.80;66.10;;;;;;10106211;29;20051;-54
2022/09/13 05:01:59;;;;;;;6.82;3.75;;;21.80;65.60;;;;;;10124238;29;20107;-54
2022/09/13 05:07:00;;;;;;;4.60;3.28;;;21.80;66.20;;;;;;10123886;29;20058;-53
2022/09/13 05:12:02;;;;;;;5.97;4.43;;;21.80;66.50;;;;;;10121575;29;20036;-54
2022/09/13 05:17:02;;;;;;;4.30;3.90;;;21.80;66.80;;;;;;10111695;29;20048;-54
2022/09/13 05:22:03;;;;;;;5.35;2.92;;;21.80;66.70;;;;;;10124885;29;20033;-53
2022/09/13 05:27:04;;;;;;;6.70;4.18;;;21.80;66.80;;;;;;10108181;29;20037;-51
2022/09/13 05:32:05;;;;;;;14.80;4.60;;;21.80;67.20;;;;;;10107732;29;20033;-51
2022/09/13 05:37:05;;;;;;;13.75;4.45;;;21.90;67.70;;;;;;10111945;29;20090;-52
2022/09/13 05:42:06;;;;;;;19.40;5.15;;;21.90;67.50;;;;;;10132005;29;20774;-51
2022/09/13 05:47:07;;;;;;;8.98;4.97;;;21.90;67.40;;;;;;10131817;29;20041;-48
2022/09/13 05:52:08;;;;;;;10.80;4.60;;;21.80;67.40;;;;;;10130910;29;20043;-50
2022/09/13 05:57:08;;;;;;;11.68;4.75;;;21.80;67.10;;;;;;10130798;29;20384;-50
2022/09/13 06:02:09;;;;;;;9.07;4.45;;;21.80;67.50;;;;;;10131085;29;20156;-54
2022/09/13 06:07:11;;;;;;;25.92;7.75;;;21.80;67.80;;;;;;10131010;29;20503;-51
2022/09/13 06:12:12;;;;;;;19.20;6.18;;;21.90;67.80;;;;;;10120664;29;20037;-50
2022/09/13 06:17:12;;;;;;;10.52;5.47;;;21.90;67.60;;;;;;10130682;29;20530;-50
2022/09/13 06:22:13;;;;;;;11.75;4.20;;;21.80;67.10;;;;;;10130127;29;20056;-51
2022/09/13 06:27:14;;;;;;;10.25;4.93;;;21.80;66.80;;;;;;10130194;29;20115;-51
2022/09/13 06:32:14;;;;;;;7.68;4.43;;;21.80;66.70;;;;;;10135099;29;20029;-50
2022/09/13 06:37:15;;;;;;;11.43;4.18;;;21.80;66.60;;;;;;10129961;29;20120;-50
2022/09/13 06:42:16;;;;;;;7.65;4.20;;;21.80;66.40;;;;;;10129916;29;20701;-51
2022/09/13 06:47:16;;;;;;;9.50;5.32;;;21.80;66.50;;;;;;10130909;29;20473;-48
2022/09/13 06:52:17;;;;;;;10.73;5.10;;;21.80;66.90;;;;;;10128537;29;20127;-50
2022/09/13 06:57:18;;;;;;;11.32;5.13;;;21.80;66.60;;;;;;10128128;29;20168;-49
2022/09/13 07:02:19;;;;;;;8.85;6.05;;;21.80;66.80;;;;;;10111587;29;20048;-48
2022/09/13 07:07:19;;;;;;;9.60;5.63;;;21.80;67.10;;;;;;10128228;29;20056;-51
2022/09/13 07:12:20;;;;;;;11.27;6.05;;;21.80;67.20;;;;;;10121851;29;20078;-53
2022/09/13 07:17:20;;;;;;;14.60;6.80;;;21.80;67.80;;;;;;10127264;29;20192;-52
2022/09/13 07:22:25;;;;;;;12.13;5.53;;;21.80;67.70;;;;;;10126853;29;20052;-52
2022/09/13 07:27:26;;;;;;;8.98;5.10;;;21.80;67.50;;;;;;10124504;29;20455;-52
2022/09/13 07:32:27;;;;;;;11.73;5.95;;;21.80;67.00;;;;;;10125159;29;20048;-52
2022/09/13 07:37:27;;;;;;;10.98;4.88;;;21.80;67.50;;;;;;10126384;29;20052;-52
2022/09/13 07:42:28;;;;;;;10.18;5.82;;;21.80;67.50;;;;;;10126566;29;20067;-52
2022/09/13 07:47:32;;;;;;;11.95;5.90;;;21.80;67.50;;;;;;10125510;29;20121;-52
2022/09/13 07:52:36;;;;;;;9.52;5.93;;;21.80;67.30;;;;;;10126654;29;20045;-53
2022/09/13 07:57:37;;;;;;;7.35;6.32;;;21.80;67.40;;;;;;10125794;29;20044;-53
2022/09/13 08:02:37;;;;;;;8.80;5.78;;;21.80;67.40;;;;;;10132208;29;20132;-51
2022/09/13 08:07:38;;;;;;;9.63;5.45;;;21.80;67.50;;;;;;10120634;29;20078;-52
2022/09/13 08:12:39;;;;;;;6.88;5.40;;;21.80;67.50;;;;;;10124131;29;20476;-51
2022/09/13 08:17:39;;;;;;;9.05;6.00;;;21.80;67.50;;;;;;10133806;29;20067;-52
2022/09/13 08:22:40;;;;;;;8.18;5.82;;;21.80;67.60;;;;;;10130206;29;20549;-51
2022/09/13 08:27:41;;;;;;;11.02;5.55;;;21.80;67.80;;;;;;10125697;29;20124;-52
2022/09/13 08:32:41;;;;;;;7.63;5.88;;;21.80;67.70;;;;;;10125288;29;20127;-51
2022/09/13 08:37:42;;;;;;;6.80;5.75;;;21.80;67.70;;;;;;10122028;29;20127;-52
2022/09/13 08:43:02;;;;;;;7.55;5.65;;;21.90;68.10;;;;;;10124944;29;20036;-51
2022/09/13 08:48:13;;;;;;;8.05;5.80;;;21.90;68.20;;;;;;10125272;29;20036;-52
2022/09/13 08:53:21;;;;;;;8.43;6.18;;;21.90;68.40;;;;;;10105946;29;20524;-53
2022/09/13 08:58:36;;;;;;;7.10;5.32;;;21.80;69.40;;;;;;10117976;29;20514;-51
2022/09/13 09:03:55;;;;;;;7.68;5.10;;;21.80;68.30;;;;;;10134928;29;20037;-51
2022/09/13 09:09:07;;;;;;;7.07;4.90;;;21.90;69.30;;;;;;10109117;29;20537;-52
2022/09/13 09:14:24;;;;;;;7.63;4.75;;;21.80;69.10;;;;;;10116309;29;20037;-52
2022/09/13 09:19:39;;;;;;;5.53;4.60;;;21.80;68.30;;;;;;10122730;29;20078;-50
2022/09/13 09:24:46;;;;;;;7.03;5.28;;;21.80;68.30;;;;;;10115577;29;20024;-53
2022/09/13 09:29:53;;;;;;;7.43;4.68;;;21.80;68.60;;;;;;10130800;29;20037;-52
2022/09/13 09:35:17;;;;;;;5.00;4.25;;;21.80;69.60;;;;;;10131052;29;20064;-51
2022/09/13 09:40:19;;;;;;;11.07;5.32;;;21.90;69.60;;;;;;10137515;29;20052;-51
2022/09/13 09:45:29;;;;;;;5.45;4.57;;;21.90;70.10;;;;;;10144511;29;20028;-51
2022/09/13 09:50:35;;;;;;;9.25;4.38;;;21.90;70.20;;;;;;10133103;29;20044;-51
2022/09/13 09:55:50;;;;;;;5.38;4.30;;;21.90;70.10;;;;;;10124835;29;20044;-50
2022/09/13 10:00:57;;;;;;;6.03;4.03;;;21.90;70.00;;;;;;10117627;29;20570;-51
2022/09/13 10:06:17;;;;;;;4.95;3.63;;;21.90;68.90;;;;;;10112296;29;20036;-50
2022/09/13 10:11:19;;;;;;;6.25;4.32;;;21.90;68.50;;;;;;10129663;29;20124;-51
2022/09/13 10:16:30;;;;;;;6.00;3.75;;;21.90;68.80;;;;;;10114948;29;20492;-47
2022/09/13 10:21:31;;;;;;;4.95;3.28;;;21.90;69.10;;;;;;10132971;29;20033;-52
2022/09/13 10:26:33;;;;;;;4.25;3.55;;;21.90;68.60;;;;;;10129608;29;20782;-52
2022/09/13 10:31:41;;;;;;;4.35;3.20;;;21.90;68.60;;;;;;10127686;29;20096;-53
2022/09/13 10:37:10;;;;;;;5.80;3.67;;;21.90;68.60;;;;;;10126796;29;20096;-53
2022/09/13 10:42:12;;;;;;;9.43;3.77;;;21.90;70.30;;;;;;10129696;29;20081;-53
2022/09/13 10:47:28;;;;;;;6.50;3.50;;;21.90;68.80;;;;;;10129391;29;20055;-51
2022/09/13 10:52:42;;;;;;;6.65;3.22;;;21.90;68.70;;;;;;10113813;29;20036;-53
2022/09/13 10:57:49;;;;;;;5.38;3.47;;;21.90;68.70;;;;;;10114388;29;20673;-53
2022/09/13 11:03:32;;;;;;;4.60;3.03;;;22.00;68.90;;;;;;10132116;29;20055;-51
2022/09/13 11:09:13;;;;;;;6.88;3.35;;;22.00;68.80;;;;;;10113449;29;20073;-52
2022/09/13 11:14:43;;;;;;;6.97;3.75;;;22.00;68.80;;;;;;10127957;29;20804;-52
2022/09/13 11:20:16;;;;;;;4.35;2.95;;;22.00;68.80;;;;;;10144499;29;20161;-52
2022/09/13 11:26:07;;;;;;;4.60;3.40;;;22.00;68.80;;;;;;10130171;29;20076;-52
2022/09/13 11:31:58;;;;;;;3.88;3.33;;;22.00;68.80;;;;;;10107001;29;20032;-52
2022/09/13 11:37:36;;;;;;;3.65;2.38;;;22.00;68.70;;;;;;10092704;29;20116;-52
2022/09/13 11:43:15;;;;;;;4.13;3.03;;;22.00;68.80;;;;;;10120143;29;20819;-51
2022/09/13 11:49:12;;;;;;;3.90;2.10;;;22.00;68.90;;;;;;10135721;29;20073;-55
2022/09/13 11:54:33;;;;;;;4.13;3.03;;;22.10;68.70;;;;;;10131176;29;20496;-51
2022/09/13 12:00:08;;;;;;;3.10;2.30;;;22.00;68.70;;;;;;10106700;29;20127;-52
2022/09/13 12:05:20;;;;;;;4.32;2.90;;;22.10;68.80;;;;;;10040511;29;20037;-52
2022/09/13 12:10:25;;;;;;;4.05;2.47;;;22.10;68.80;;;;;;10123397;29;20091;-52
2022/09/13 12:15:38;;;;;;;2.65;2.17;;;22.10;68.70;;;;;;10104668;29;20109;-53
2022/09/13 12:20:56;;;;;;;4.68;2.70;;;22.10;68.80;;;;;;10146712;29;20033;-52
2022/09/13 12:26:02;;;;;;;7.05;2.70;;;22.10;68.70;;;;;;10132057;29;20067;-52
2022/09/13 12:31:30;;;;;;;7.75;3.15;;;22.20;68.60;;;;;;10125795;29;20370;-52
2022/09/13 12:37:07;;;;;;;14.02;3.75;;;22.20;68.60;;;;;;10106999;29;20052;-51
2022/09/13 12:42:17;;;;;;;8.10;3.45;;;22.30;69.90;;;;;;10125748;29;20036;-52
2022/09/13 12:48:18;;;;;;;11.13;4.53;;;22.60;69.00;;;;;;10122767;29;20119;-52
2022/09/13 12:53:29;;;;;;;11.10;3.85;;;22.70;70.20;;;;;;10115393;29;20044;-52
2022/09/13 12:58:58;;;;;;;11.90;4.63;;;22.70;72.90;;;;;;10109489;29;20101;-53
2022/09/13 13:04:33;;;;;;;14.20;5.05;;;22.80;75.60;;;;;;10124891;29;20160;-53
2022/09/13 13:09:47;;;;;;;9.75;4.47;;;22.90;75.30;;;;;;10119119;29;20416;-51
2022/09/13 13:14:52;;;;;;;8.30;3.50;;;23.00;75.80;;;;;;10116080;29;20093;-51
2022/09/13 13:19:52;;;;;;;7.22;2.63;;;22.90;74.60;;;;;;10106660;29;20628;-53
2022/09/13 13:24:54;;;;;;;6.68;3.70;;;22.70;71.00;;;;;;10122486;29;20225;-52
2022/09/13 13:30:48;;;;;;;7.10;3.15;;;22.70;74.40;;;;;;10122607;29;20346;-53
2022/09/13 13:35:49;;;;;;;6.60;2.90;;;22.70;73.30;;;;;;10118706;29;20044;-52
2022/09/13 13:40:52;;;;;;;9.63;3.30;;;22.60;70.30;;;;;;10122498;29;20037;-50
2022/09/13 13:46:34;;;;;;;130.90;116.57;;;22.50;71.80;;;;;;10105343;29;20028;-52
2022/09/13 13:51:35;;;;;;;55.13;36.97;;;22.50;71.50;;;;;;10121811;29;20045;-53
2022/09/13 13:56:48;;;;;;;34.17;26.95;;;22.50;70.60;;;;;;10123018;29;20055;-52
2022/09/13 14:01:54;;;;;;;33.70;18.73;;;22.50;70.00;;;;;;10111635;29;20039;-52
2022/09/13 14:07:38;;;;;;;25.02;17.75;;;22.50;69.80;;;;;;10112098;29;20044;-53
2022/09/13 14:13:02;;;;;;;23.90;14.38;;;22.50;70.00;;;;;;10140538;29;20551;-52
2022/09/13 14:18:43;;;;;;;21.55;12.98;;;22.50;69.80;;;;;;10128024;29;20599;-53
2022/09/13 14:23:43;;;;;;;16.92;9.98;;;22.50;69.20;;;;;;10114165;29;20040;-52
2022/09/13 14:28:44;;;;;;;13.05;8.70;;;22.40;69.60;;;;;;10127714;29;20135;-56
2022/09/13 14:33:45;;;;;;;14.98;7.97;;;22.40;69.50;;;;;;10111154;29;20100;-55
2022/09/13 14:39:07;;;;;;;10.60;6.95;;;22.40;69.30;;;;;;10110430;29;20509;-54
2022/09/13 14:44:19;;;;;;;14.10;7.05;;;22.40;69.00;;;;;;10110600;29;20033;-54
2022/09/13 14:49:30;;;;;;;13.50;5.43;;;22.50;69.70;;;;;;10110426;29;20643;-55
2022/09/13 14:54:49;;;;;;;9.32;4.60;;;22.50;69.80;;;;;;10126897;29;20030;-56
2022/09/13 15:00:15;;;;;;;8.13;4.30;;;22.50;69.30;;;;;;10126080;29;20041;-54
2022/09/13 15:05:20;;;;;;;5.80;4.53;;;22.60;68.50;;;;;;10110643;29;20429;-57
2022/09/13 15:10:32;;;;;;;5.55;3.47;;;22.70;67.90;;;;;;10115330;29;20039;-56
2022/09/13 15:15:41;;;;;;;6.82;4.63;;;22.80;67.60;;;;;;10125525;29;20045;-56
2022/09/13 15:21:03;;;;;;;9.18;3.88;;;22.80;68.20;;;;;;10135432;29;20025;-55
2022/09/13 15:26:24;;;;;;;5.70;3.40;;;22.80;68.40;;;;;;10109763;29;20087;-56
2022/09/13 15:31:32;;;;;;;8.70;3.90;;;22.80;68.50;;;;;;10109912;29;20028;-56
2022/09/13 15:36:33;;;;;;;7.03;4.25;;;22.90;68.70;;;;;;10108315;29;20048;-57
2022/09/13 15:41:39;;;;;;;6.40;3.90;;;22.90;68.80;;;;;;10121149;29;20078;-54
2022/09/13 15:46:51;;;;;;;6.50;4.13;;;22.90;68.60;;;;;;10124588;29;20041;-54
2022/09/13 15:51:57;;;;;;;4.90;3.38;;;22.90;68.50;;;;;;10113144;29;20037;-55
2022/09/13 15:56:58;;;;;;;7.65;3.40;;;22.80;68.80;;;;;;10136969;29;20040;-56
2022/09/13 16:02:01;;;;;;;5.50;2.80;;;22.80;68.60;;;;;;10140368;29;20133;-55
2022/09/13 16:07:01;;;;;;;12.02;3.65;;;22.80;68.50;;;;;;10109873;29;20041;-56
2022/09/13 16:12:02;;;;;;;6.78;2.95;;;22.80;68.70;;;;;;10125060;29;20115;-54
2022/09/13 16:17:26;;;;;;;11.95;3.40;;;22.90;69.20;;;;;;10107109;29;20068;-56
2022/09/13 16:22:27;;;;;;;16.90;2.72;;;22.90;68.70;;;;;;10130515;29;20315;-55
2022/09/13 16:27:27;;;;;;;5.90;2.53;;;22.90;68.40;;;;;;10122214;29;20116;-55
2022/09/13 16:32:28;;;;;;;13.68;2.75;;;22.80;67.60;;;;;;10123570;29;20037;-54
2022/09/13 16:37:29;;;;;;;14.18;3.20;;;22.70;67.50;;;;;;10123469;29;20486;-54
2022/09/13 16:42:30;;;;;;;28.17;5.93;;;22.70;67.60;;;;;;10103733;29;20027;-55
2022/09/13 16:47:31;;;;;;;18.80;3.95;;;22.60;67.50;;;;;;10122908;29;20028;-55
2022/09/13 16:52:32;;;;;;;15.68;3.53;;;22.60;67.30;;;;;;10124072;29;20066;-54
2022/09/13 16:57:33;;;;;;;12.30;2.88;;;22.60;67.20;;;;;;10120336;29;20057;-55
2022/09/13 17:02:34;;;;;;;9.65;3.00;;;22.60;67.20;;;;;;10124509;29;20080;-55
2022/09/13 17:07:35;;;;;;;7.43;2.35;;;22.50;67.20;;;;;;10100712;29;20048;-54
2022/09/13 17:12:36;;;;;;;6.95;2.25;;;22.50;67.80;;;;;;10106248;29;20025;-54
2022/09/13 17:17:37;;;;;;;7.68;2.25;;;22.50;67.20;;;;;;10122609;29;20051;-55
2022/09/13 17:22:39;;;;;;;6.80;2.33;;;22.50;67.00;;;;;;10123203;29;20124;-55
2022/09/13 17:27:39;;;;;;;7.00;2.25;;;22.50;67.10;;;;;;10123587;29;20039;-53
2022/09/13 17:32:40;;;;;;;6.88;2.58;;;22.50;67.10;;;;;;10123144;29;20054;-54
2022/09/13 17:37:41;;;;;;;4.80;1.73;;;22.50;67.10;;;;;;10130509;29;20193;-55
2022/09/13 17:42:42;;;;;;;2.92;2.00;;;22.50;67.00;;;;;;10113781;29;20587;-55
2022/09/13 17:47:42;;;;;;;6.65;1.70;;;22.50;66.90;;;;;;10128755;29;20064;-53
2022/09/13 17:52:43;;;;;;;4.40;1.58;;;22.50;66.80;;;;;;10113815;29;20037;-55
2022/09/13 17:57:48;;;;;;;7.32;2.00;;;22.50;66.80;;;;;;10091468;29;20165;-54
2022/09/13 18:02:49;;;;;;;3.75;1.27;;;22.50;66.60;;;;;;10092675;29;20029;-53
2022/09/13 18:07:49;;;;;;;4.70;1.13;;;22.50;66.60;;;;;;10092368;29;20579;-54
2022/09/13 18:12:50;;;;;;;5.45;1.63;;;22.50;66.40;;;;;;10092185;29;20085;-54
2022/09/13 18:17:51;;;;;;;8.38;2.45;;;22.50;66.60;;;;;;10074934;29;20140;-55
2022/09/13 18:22:52;;;;;;;8.13;2.15;;;22.50;65.90;;;;;;10089635;29;20166;-56
2022/09/13 18:27:52;;;;;;;7.05;1.60;;;22.50;65.80;;;;;;10091226;29;20117;-55
2022/09/13 18:32:53;;;;;;;11.90;2.60;;;22.50;65.90;;;;;;10090832;29;20072;-56
2022/09/13 18:37:54;;;;;;;13.60;2.85;;;22.50;66.20;;;;;;10072277;29;20100;-55
2022/09/13 18:42:55;;;;;;;6.43;2.30;;;22.50;66.30;;;;;;10088934;29;20083;-56
2022/09/13 18:47:56;;;;;;;5.47;1.48;;;22.50;66.20;;;;;;10090122;29;20033;-56
2022/09/13 18:52:57;;;;;;;8.73;2.08;;;22.40;66.10;;;;;;10065156;29;20112;-55
2022/09/13 18:57:58;;;;;;;9.55;2.10;;;22.50;66.20;;;;;;10117742;29;20143;-55
2022/09/13 19:02:58;;;;;;;5.75;1.95;;;22.40;66.00;;;;;;10128876;29;20064;-55
2022/09/13 19:07:59;;;;;;;11.45;3.25;;;22.50;66.00;;;;;;10124887;29;20044;-54
2022/09/13 19:13:01;;;;;;;4.10;1.70;;;22.50;66.00;;;;;;10119910;29;20037;-55
2022/09/13 19:18:01;;;;;;;5.43;1.88;;;22.50;65.90;;;;;;10109911;29;20092;-56
2022/09/13 19:23:02;;;;;;;4.65;1.45;;;22.50;65.90;;;;;;10125090;29;20032;-55
2022/09/13 19:28:03;;;;;;;5.35;1.40;;;22.50;65.90;;;;;;10126495;29;20136;-55
2022/09/13 19:33:03;;;;;;;4.10;1.42;;;22.50;65.60;;;;;;10126682;29;20040;-54
2022/09/13 19:38:04;;;;;;;4.38;1.25;;;22.50;65.50;;;;;;10125472;29;20366;-55
2022/09/13 19:43:05;;;;;;;5.30;2.00;;;22.50;65.60;;;;;;10126066;29;20084;-55
2022/09/13 19:48:06;;;;;;;7.80;1.88;;;22.50;65.50;;;;;;10126820;29;20075;-53
2022/09/13 19:53:06;;;;;;;7.50;1.63;;;22.50;65.50;;;;;;10126257;29;20067;-53
2022/09/13 19:58:07;;;;;;;2.53;1.20;;;22.50;65.40;;;;;;10125508;29;20076;-55
2022/09/13 20:03:08;;;;;;;4.03;1.48;;;22.50;65.40;;;;;;10125484;29;20112;-55
2022/09/13 20:08:09;;;;;;;6.53;2.33;;;22.50;65.30;;;;;;10125556;29;20044;-55
2022/09/13 20:13:10;;;;;;;4.63;1.02;;;22.50;65.20;;;;;;10123662;29;20074;-55
2022/09/13 20:18:14;;;;;;;3.35;1.27;;;22.50;65.20;;;;;;10128342;29;20059;-54
2022/09/13 20:23:16;;;;;;;2.17;0.80;;;22.40;65.30;;;;;;10123257;29;20033;-53
2022/09/13 20:28:16;;;;;;;1.88;1.17;;;22.40;65.50;;;;;;10125165;29;20045;-55
2022/09/13 20:33:18;;;;;;;3.58;1.27;;;22.40;65.40;;;;;;10126172;29;20080;-54
2022/09/13 20:38:19;;;;;;;1.67;0.70;;;22.50;65.20;;;;;;10125354;29;20508;-55
2022/09/13 20:43:20;;;;;;;2.95;0.80;;;22.40;65.10;;;;;;10125404;29;20044;-56
2022/09/13 20:48:21;;;;;;;2.75;1.00;;;22.40;65.00;;;;;;10125621;29;20032;-54
2022/09/13 20:53:22;;;;;;;2.50;1.10;;;22.40;65.00;;;;;;10124336;29;20094;-54
2022/09/13 20:58:23;;;;;;;2.25;0.88;;;22.40;65.00;;;;;;10125095;29;20051;-55
2022/09/13 21:03:24;;;;;;;2.95;1.20;;;22.40;64.80;;;;;;10125386;29;20045;-55
2022/09/13 21:08:43;;;;;;;2.20;0.98;;;22.40;64.80;;;;;;10131867;29;20056;-55
2022/09/13 21:13:49;;;;;;;2.57;1.50;;;22.40;64.80;;;;;;10129957;29;20076;-55
2022/09/13 21:18:51;;;;;;;3.75;1.10;;;22.40;64.80;;;;;;10133133;29;20048;-54
2022/09/13 21:23:53;;;;;;;5.22;1.35;;;22.40;64.80;;;;;;10132503;29;20028;-54
2022/09/13 21:28:55;;;;;;;1.73;0.88;;;22.40;64.80;;;;;;10115688;29;20041;-55
2022/09/13 21:34:03;;;;;;;2.28;1.20;;;22.40;64.70;;;;;;10132573;29;20033;-54
2022/09/13 21:39:04;;;;;;;3.17;1.05;;;22.30;64.70;;;;;;10115250;29;20048;-55
2022/09/13 21:44:05;;;;;;;3.70;1.65;;;22.30;64.60;;;;;;10132152;29;20032;-55
2022/09/13 21:49:10;;;;;;;2.45;1.00;;;22.30;64.60;;;;;;10131635;29;20524;-54
2022/09/13 21:54:15;;;;;;;2.35;1.00;;;22.30;64.60;;;;;;10130767;29;20033;-55
2022/09/13 21:59:18;;;;;;;3.03;1.10;;;22.30;64.50;;;;;;10130935;29;20052;-55
2022/09/13 22:04:24;;;;;;;2.05;1.25;;;22.30;64.50;;;;;;10131185;29;20037;-56
2022/09/13 22:09:25;;;;;;;1.88;0.90;;;22.30;64.50;;;;;;10131006;29;20072;-54
2022/09/13 22:14:26;;;;;;;2.45;0.88;;;22.30;64.50;;;;;;10114281;29;20025;-54
2022/09/13 22:19:29;;;;;;;1.45;0.70;;;22.30;64.50;;;;;;10125500;29;20048;-55
2022/09/13 22:24:35;;;;;;;1.55;0.65;;;22.30;64.40;;;;;;10130200;29;20028;-55
2022/09/13 22:29:36;;;;;;;2.13;0.93;;;22.30;64.40;;;;;;10129115;29;20374;-55
2022/09/13 22:34:36;;;;;;;1.88;0.77;;;22.30;64.40;;;;;;10130496;29;20068;-56
2022/09/13 22:39:37;;;;;;;1.38;0.70;;;22.20;64.20;;;;;;10129542;29;20044;-55
2022/09/13 22:44:38;;;;;;;1.75;1.10;;;22.30;64.30;;;;;;10113216;29;20116;-55
2022/09/13 22:49:38;;;;;;;2.22;0.90;;;22.20;64.20;;;;;;10112661;29;20120;-54
2022/09/13 22:54:39;;;;;;;2.20;1.15;;;22.20;64.10;;;;;;10129325;29;20108;-54
2022/09/13 22:59:40;;;;;;;2.15;0.80;;;22.20;64.10;;;;;;10129284;29;20185;-54
2022/09/13 23:04:40;;;;;;;2.80;1.05;;;22.20;64.10;;;;;;10129127;29;20140;-54
2022/09/13 23:09:41;;;;;;;2.50;1.10;;;22.20;64.00;;;;;;10112537;29;20579;-54
2022/09/13 23:14:42;;;;;;;1.17;0.75;;;22.20;64.00;;;;;;10128238;29;20607;-54
2022/09/13 23:19:42;;;;;;;1.20;0.80;;;22.20;64.00;;;;;;10115855;29;20452;-55
2022/09/13 23:24:43;;;;;;;1.45;0.80;;;22.20;64.00;;;;;;10128687;29;20053;-53
2022/09/13 23:29:44;;;;;;;2.42;1.02;;;22.20;64.00;;;;;;10127410;29;20068;-54
2022/09/13 23:34:45;;;;;;;0.88;0.82;;;22.20;63.90;;;;;;10128480;29;20119;-54
2022/09/13 23:39:45;;;;;;;2.33;0.82;;;22.20;64.00;;;;;;10128127;29;20153;-55
2022/09/13 23:44:46;;;;;;;2.25;0.82;;;22.20;63.90;;;;;;10127416;29;20052;-54
2022/09/13 23:49:47;;;;;;;1.60;1.00;;;22.10;63.80;;;;;;10126245;29;20076;-54
2022/09/13 23:54:47;;;;;;;2.97;1.05;;;22.20;63.90;;;;;;10126942;29;20044;-54
2022/09/13 23:59:48;;;;;;;1.33;0.90;;;22.10;63.80;;;;;;10126695;29;20568;-54
